sensor_id;sensor_type;location;lat;lon;timestamp;P1;durP1;ratioP1;P2;durP2;ratioP2
55220;SDS011;41089;51.448;6.604;2023-04-25T00:02:46;13.73;;;5.10;;
55220;SDS011;41089;51.448;6.604;2023-04-25T00:08:47;15.85;;;5.30;;
55220;SDS011;41089;51.448;6.604;2023-04-25T00:14:48;12.48;;;5.75;;
55220;SDS011;41089;51.448;6.604;2023-04-25T00:20:49;15.20;;;4.45;;
55220;SDS011;41089;51.448;6.604;2023-04-25T00:26:50;17.70;;;6.73;;
55220;SDS011;41089;51.448;6.604;2023-04-25T00:32:51;10.40;;;4.35;;
55220;SDS011;41089;51.448;6.604;2023-04-25T00:38:53;14.38;;;5.03;;
55220;SDS011;41089;51.448;6.604;2023-04-25T00:44:55;18.23;;;5.75;;
55220;SDS011;41089;51.448;6.604;2023-04-25T00:50:59;15.55;;;5.95;;
55220;SDS011;41089;51.448;6.604;2023-04-25T00:57:00;17.73;;;6.57;;
55220;SDS011;41089;51.448;6.604;2023-04-25T01:03:00;12.60;;;6.60;;
55220;SDS011;41089;51.448;6.604;2023-04-25T01:09:03;14.68;;;5.15;;
55220;SDS011;41089;51.448;6.604;2023-04-25T01:15:05;17.60;;;5.55;;
55220;SDS011;41089;51.448;6.604;2023-04-25T01:21:11;13.25;;;6.50;;
55220;SDS011;41089;51.448;6.604;2023-04-25T01:27:14;17.70;;;5.38;;
55220;SDS011;41089;51.448;6.604;2023-04-25T01:33:15;9.77;;;4.65;;
55220;SDS011;41089;51.448;6.604;2023-04-25T01:39:16;16.67;;;5.53;;
55220;SDS011;41089;51.448;6.604;2023-04-25T01:45:17;13.30;;;5.32;;
55220;SDS011;41089;51.448;6.604;2023-04-25T01:51:18;13.00;;;4.97;;
55220;SDS011;41089;51.448;6.604;2023-04-25T01:57:19;12.25;;;4.85;;
55220;SDS011;41089;51.448;6.604;2023-04-25T02:17:22;9.73;;;3.80;;
55220;SDS011;41089;51.448;6.604;2023-04-25T02:23:22;7.95;;;4.30;;
55220;SDS011;41089;51.448;6.604;2023-04-25T02:29:23;11.27;;;5.00;;
55220;SDS011;41089;51.448;6.604;2023-04-25T02:35:23;14.23;;;5.20;;
55220;SDS011;41089;51.448;6.604;2023-04-25T02:41:24;16.35;;;4.88;;
55220;SDS011;41089;51.448;6.604;2023-04-25T02:47:24;13.10;;;4.65;;
55220;SDS011;41089;51.448;6.604;2023-04-25T02:53:25;12.63;;;4.80;;
55220;SDS011;41089;51.448;6.604;2023-04-25T02:59:25;9.83;;;4.30;;
55220;SDS011;41089;51.448;6.604;2023-04-25T03:05:26;13.05;;;4.25;;
55220;SDS011;41089;51.448;6.604;2023-04-25T03:11:26;12.63;;;5.13;;
55220;SDS011;41089;51.448;6.604;2023-04-25T03:17:26;20.43;;;5.33;;
55220;SDS011;41089;51.448;6.604;2023-04-25T03:23:27;10.05;;;4.72;;
55220;SDS011;41089;51.448;6.604;2023-04-25T03:29:27;14.40;;;5.18;;
55220;SDS011;41089;51.448;6.604;2023-04-25T03:35:28;15.38;;;4.85;;
55220;SDS011;41089;51.448;6.604;2023-04-25T03:41:30;17.33;;;4.82;;
55220;SDS011;41089;51.448;6.604;2023-04-25T03:47:30;10.70;;;4.45;;
55220;SDS011;41089;51.448;6.604;2023-04-25T03:53:31;16.70;;;5.70;;
55220;SDS011;41089;51.448;6.604;2023-04-25T03:59:31;15.95;;;4.60;;
55220;SDS011;41089;51.448;6.604;2023-04-25T04:05:32;14.70;;;4.93;;
55220;SDS011;41089;51.448;6.604;2023-04-25T04:11:32;18.25;;;5.10;;
55220;SDS011;41089;51.448;6.604;2023-04-25T04:17:33;13.82;;;5.80;;
55220;SDS011;41089;51.448;6.604;2023-04-25T04:23:34;16.75;;;5.65;;
55220;SDS011;41089;51.448;6.604;2023-04-25T04:29:35;17.67;;;5.32;;
55220;SDS011;41089;51.448;6.604;2023-04-25T04:35:36;11.00;;;4.97;;
55220;SDS011;41089;51.448;6.604;2023-04-25T04:41:37;16.95;;;4.82;;
55220;SDS011;41089;51.448;6.604;2023-04-25T04:47:37;20.48;;;6.18;;
55220;SDS011;41089;51.448;6.604;2023-04-25T04:53:39;22.20;;;5.45;;
55220;SDS011;41089;51.448;6.604;2023-04-25T04:59:40;17.63;;;5.20;;
55220;SDS011;41089;51.448;6.604;2023-04-25T05:05:40;16.83;;;5.17;;
55220;SDS011;41089;51.448;6.604;2023-04-25T05:11:41;10.85;;;5.38;;
55220;SDS011;41089;51.448;6.604;2023-04-25T05:17:41;15.33;;;5.17;;
55220;SDS011;41089;51.448;6.604;2023-04-25T05:23:42;21.77;;;5.90;;
55220;SDS011;41089;51.448;6.604;2023-04-25T05:29:42;13.97;;;4.93;;
55220;SDS011;41089;51.448;6.604;2023-04-25T05:35:43;12.27;;;4.47;;
55220;SDS011;41089;51.448;6.604;2023-04-25T05:41:43;19.40;;;5.63;;
55220;SDS011;41089;51.448;6.604;2023-04-25T05:47:44;16.30;;;5.30;;
55220;SDS011;41089;51.448;6.604;2023-04-25T05:53:44;15.48;;;5.32;;
55220;SDS011;41089;51.448;6.604;2023-04-25T05:59:46;19.60;;;5.20;;
55220;SDS011;41089;51.448;6.604;2023-04-25T06:05:46;16.02;;;4.95;;
55220;SDS011;41089;51.448;6.604;2023-04-25T06:11:47;18.05;;;4.93;;
55220;SDS011;41089;51.448;6.604;2023-04-25T06:17:47;16.97;;;4.73;;
55220;SDS011;41089;51.448;6.604;2023-04-25T06:23:48;14.85;;;5.25;;
55220;SDS011;41089;51.448;6.604;2023-04-25T06:29:49;13.48;;;4.80;;
55220;SDS011;41089;51.448;6.604;2023-04-25T06:35:49;16.52;;;5.20;;
55220;SDS011;41089;51.448;6.604;2023-04-25T06:41:50;14.63;;;5.00;;
55220;SDS011;41089;51.448;6.604;2023-04-25T06:47:50;14.00;;;4.65;;
55220;SDS011;41089;51.448;6.604;2023-04-25T06:53:52;16.77;;;4.70;;
55220;SDS011;41089;51.448;6.604;2023-04-25T06:59:52;13.52;;;4.70;;
55220;SDS011;41089;51.448;6.604;2023-04-25T07:05:53;12.93;;;4.30;;
55220;SDS011;41089;51.448;6.604;2023-04-25T07:11:53;19.73;;;4.97;;
55220;SDS011;41089;51.448;6.604;2023-04-25T07:17:54;17.48;;;5.03;;
55220;SDS011;41089;51.448;6.604;2023-04-25T07:23:54;18.48;;;4.53;;
55220;SDS011;41089;51.448;6.604;2023-04-25T07:29:55;14.88;;;3.55;;
55220;SDS011;41089;51.448;6.604;2023-04-25T07:35:55;12.75;;;4.30;;
55220;SDS011;41089;51.448;6.604;2023-04-25T07:41:56;10.88;;;3.58;;
55220;SDS011;41089;51.448;6.604;2023-04-25T07:47:58;6.30;;;2.67;;
55220;SDS011;41089;51.448;6.604;2023-04-25T07:53:58;10.48;;;2.60;;
55220;SDS011;41089;51.448;6.604;2023-04-25T07:59:59;12.48;;;3.45;;
55220;SDS011;41089;51.448;6.604;2023-04-25T08:06:01;9.88;;;2.55;;
55220;SDS011;41089;51.448;6.604;2023-04-25T08:12:01;11.25;;;3.15;;
55220;SDS011;41089;51.448;6.604;2023-04-25T08:18:03;11.18;;;3.00;;
55220;SDS011;41089;51.448;6.604;2023-04-25T08:24:03;11.48;;;2.83;;
55220;SDS011;41089;51.448;6.604;2023-04-25T08:30:04;10.88;;;3.55;;
55220;SDS011;41089;51.448;6.604;2023-04-25T08:36:06;14.00;;;2.65;;
55220;SDS011;41089;51.448;6.604;2023-04-25T08:42:08;7.50;;;2.40;;
55220;SDS011;41089;51.448;6.604;2023-04-25T08:48:10;6.80;;;2.03;;
55220;SDS011;41089;51.448;6.604;2023-04-25T08:54:12;9.55;;;2.08;;
55220;SDS011;41089;51.448;6.604;2023-04-25T09:00:14;10.18;;;2.05;;
55220;SDS011;41089;51.448;6.604;2023-04-25T09:06:14;8.05;;;2.35;;
55220;SDS011;41089;51.448;6.604;2023-04-25T09:12:19;12.98;;;3.22;;
55220;SDS011;41089;51.448;6.604;2023-04-25T09:24:32;5.40;;;1.80;;
55220;SDS011;41089;51.448;6.604;2023-04-25T09:30:34;7.18;;;1.90;;
55220;SDS011;41089;51.448;6.604;2023-04-25T09:36:35;12.75;;;2.40;;
55220;SDS011;41089;51.448;6.604;2023-04-25T09:42:35;8.75;;;1.33;;
55220;SDS011;41089;51.448;6.604;2023-04-25T09:48:37;5.47;;;1.75;;
55220;SDS011;41089;51.448;6.604;2023-04-25T09:54:37;4.72;;;1.95;;
55220;SDS011;41089;51.448;6.604;2023-04-25T10:00:38;7.70;;;2.67;;
55220;SDS011;41089;51.448;6.604;2023-04-25T10:06:38;6.30;;;2.47;;
55220;SDS011;41089;51.448;6.604;2023-04-25T10:12:41;5.20;;;1.23;;
55220;SDS011;41089;51.448;6.604;2023-04-25T10:18:43;6.03;;;1.63;;
55220;SDS011;41089;51.448;6.604;2023-04-25T10:24:44;6.07;;;1.65;;
55220;SDS011;41089;51.448;6.604;2023-04-25T10:37:08;8.10;;;2.00;;
55220;SDS011;41089;51.448;6.604;2023-04-25T10:49:37;6.00;;;2.05;;
55220;SDS011;41089;51.448;6.604;2023-04-25T10:55:51;5.55;;;1.85;;
55220;SDS011;41089;51.448;6.604;2023-04-25T11:01:52;6.85;;;2.17;;
55220;SDS011;41089;51.448;6.604;2023-04-25T11:07:55;6.35;;;2.08;;
55220;SDS011;41089;51.448;6.604;2023-04-25T11:13:59;6.30;;;1.67;;
55220;SDS011;41089;51.448;6.604;2023-04-25T11:20:00;7.15;;;2.90;;
55220;SDS011;41089;51.448;6.604;2023-04-25T11:26:00;8.02;;;2.30;;
55220;SDS011;41089;51.448;6.604;2023-04-25T11:32:01;7.45;;;2.13;;
55220;SDS011;41089;51.448;6.604;2023-04-25T11:38:02;7.78;;;3.25;;
55220;SDS011;41089;51.448;6.604;2023-04-25T11:44:03;7.65;;;2.38;;
55220;SDS011;41089;51.448;6.604;2023-04-25T11:50:04;14.40;;;2.95;;
55220;SDS011;41089;51.448;6.604;2023-04-25T11:56:10;7.68;;;2.83;;
55220;SDS011;41089;51.448;6.604;2023-04-25T12:02:25;8.02;;;2.90;;
55220;SDS011;41089;51.448;6.604;2023-04-25T12:08:26;6.32;;;2.55;;
55220;SDS011;41089;51.448;6.604;2023-04-25T12:14:29;8.27;;;2.40;;
55220;SDS011;41089;51.448;6.604;2023-04-25T12:20:31;7.13;;;2.10;;
55220;SDS011;41089;51.448;6.604;2023-04-25T12:26:45;8.75;;;2.80;;
55220;SDS011;41089;51.448;6.604;2023-04-25T12:32:47;7.80;;;2.15;;
55220;SDS011;41089;51.448;6.604;2023-04-25T12:38:47;5.43;;;2.20;;
55220;SDS011;41089;51.448;6.604;2023-04-25T12:44:49;9.80;;;2.50;;
55220;SDS011;41089;51.448;6.604;2023-04-25T12:50:50;6.38;;;2.30;;
55220;SDS011;41089;51.448;6.604;2023-04-25T12:56:51;7.50;;;2.88;;
55220;SDS011;41089;51.448;6.604;2023-04-25T13:02:52;6.95;;;1.60;;
55220;SDS011;41089;51.448;6.604;2023-04-25T13:08:53;8.70;;;2.97;;
55220;SDS011;41089;51.448;6.604;2023-04-25T13:14:54;8.20;;;2.03;;
55220;SDS011;41089;51.448;6.604;2023-04-25T13:20:55;7.65;;;1.48;;
55220;SDS011;41089;51.448;6.604;2023-04-25T13:26:55;4.80;;;1.20;;
55220;SDS011;41089;51.448;6.604;2023-04-25T13:32:57;5.03;;;1.40;;
55220;SDS011;41089;51.448;6.604;2023-04-25T13:39:00;5.53;;;2.10;;
55220;SDS011;41089;51.448;6.604;2023-04-25T13:45:01;7.17;;;2.10;;
55220;SDS011;41089;51.448;6.604;2023-04-25T13:51:01;7.15;;;1.58;;
55220;SDS011;41089;51.448;6.604;2023-04-25T13:57:02;2.88;;;1.35;;
55220;SDS011;41089;51.448;6.604;2023-04-25T14:03:02;9.93;;;1.63;;
55220;SDS011;41089;51.448;6.604;2023-04-25T14:09:04;6.63;;;1.60;;
55220;SDS011;41089;51.448;6.604;2023-04-25T14:15:06;4.85;;;1.80;;
55220;SDS011;41089;51.448;6.604;2023-04-25T14:21:07;4.68;;;1.50;;
55220;SDS011;41089;51.448;6.604;2023-04-25T14:27:08;3.13;;;1.02;;
55220;SDS011;41089;51.448;6.604;2023-04-25T14:33:08;3.10;;;1.33;;
55220;SDS011;41089;51.448;6.604;2023-04-25T14:39:08;6.77;;;2.17;;
55220;SDS011;41089;51.448;6.604;2023-04-25T14:45:10;5.78;;;1.98;;
55220;SDS011;41089;51.448;6.604;2023-04-25T14:51:10;5.55;;;1.60;;
55220;SDS011;41089;51.448;6.604;2023-04-25T14:57:11;4.97;;;1.50;;
55220;SDS011;41089;51.448;6.604;2023-04-25T15:03:12;3.38;;;1.27;;
55220;SDS011;41089;51.448;6.604;2023-04-25T15:09:13;2.53;;;1.33;;
55220;SDS011;41089;51.448;6.604;2023-04-25T15:15:13;5.30;;;1.50;;
55220;SDS011;41089;51.448;6.604;2023-04-25T15:21:14;9.07;;;1.75;;
55220;SDS011;41089;51.448;6.604;2023-04-25T15:27:14;6.05;;;1.65;;
55220;SDS011;41089;51.448;6.604;2023-04-25T15:33:15;5.90;;;1.60;;
55220;SDS011;41089;51.448;6.604;2023-04-25T15:39:16;6.38;;;1.85;;
55220;SDS011;41089;51.448;6.604;2023-04-25T15:45:17;3.30;;;1.02;;
55220;SDS011;41089;51.448;6.604;2023-04-25T15:51:27;2.97;;;0.95;;
55220;SDS011;41089;51.448;6.604;2023-04-25T15:57:27;3.72;;;1.35;;
55220;SDS011;41089;51.448;6.604;2023-04-25T16:03:27;6.53;;;1.58;;
55220;SDS011;41089;51.448;6.604;2023-04-25T16:09:29;6.28;;;1.55;;
55220;SDS011;41089;51.448;6.604;2023-04-25T16:15:29;3.17;;;1.35;;
55220;SDS011;41089;51.448;6.604;2023-04-25T16:21:37;3.90;;;1.55;;
55220;SDS011;41089;51.448;6.604;2023-04-25T16:27:37;4.45;;;1.50;;
55220;SDS011;41089;51.448;6.604;2023-04-25T16:33:38;5.35;;;1.45;;
55220;SDS011;41089;51.448;6.604;2023-04-25T16:39:38;7.33;;;1.80;;
55220;SDS011;41089;51.448;6.604;2023-04-25T16:45:39;3.95;;;1.52;;
55220;SDS011;41089;51.448;6.604;2023-04-25T16:51:40;5.32;;;2.03;;
55220;SDS011;41089;51.448;6.604;2023-04-25T16:57:40;7.40;;;1.83;;
55220;SDS011;41089;51.448;6.604;2023-04-25T17:03:41;4.13;;;1.45;;
55220;SDS011;41089;51.448;6.604;2023-04-25T17:09:43;4.57;;;1.33;;
55220;SDS011;41089;51.448;6.604;2023-04-25T17:15:44;4.10;;;1.23;;
55220;SDS011;41089;51.448;6.604;2023-04-25T17:21:46;3.95;;;1.27;;
55220;SDS011;41089;51.448;6.604;2023-04-25T17:27:46;3.20;;;1.42;;
55220;SDS011;41089;51.448;6.604;2023-04-25T17:33:47;2.23;;;0.93;;
55220;SDS011;41089;51.448;6.604;2023-04-25T17:39:47;3.53;;;1.20;;
55220;SDS011;41089;51.448;6.604;2023-04-25T17:45:49;8.70;;;2.58;;
55220;SDS011;41089;51.448;6.604;2023-04-25T17:51:49;4.53;;;2.25;;
55220;SDS011;41089;51.448;6.604;2023-04-25T17:57:50;6.63;;;1.65;;
55220;SDS011;41089;51.448;6.604;2023-04-25T18:03:50;3.40;;;1.70;;
55220;SDS011;41089;51.448;6.604;2023-04-25T18:09:51;4.25;;;2.15;;
55220;SDS011;41089;51.448;6.604;2023-04-25T18:15:51;9.80;;;2.08;;
55220;SDS011;41089;51.448;6.604;2023-04-25T18:21:52;7.65;;;2.08;;
55220;SDS011;41089;51.448;6.604;2023-04-25T18:27:54;7.30;;;1.95;;
55220;SDS011;41089;51.448;6.604;2023-04-25T18:33:54;7.57;;;1.92;;
55220;SDS011;41089;51.448;6.604;2023-04-25T18:39:56;8.45;;;2.08;;
55220;SDS011;41089;51.448;6.604;2023-04-25T18:45:57;6.53;;;2.80;;
55220;SDS011;41089;51.448;6.604;2023-04-25T18:51:58;8.55;;;3.00;;
55220;SDS011;41089;51.448;6.604;2023-04-25T18:57:58;4.32;;;1.48;;
55220;SDS011;41089;51.448;6.604;2023-04-25T19:03:59;5.70;;;1.97;;
55220;SDS011;41089;51.448;6.604;2023-04-25T19:10:01;8.48;;;2.25;;
55220;SDS011;41089;51.448;6.604;2023-04-25T19:16:03;4.75;;;1.85;;
55220;SDS011;41089;51.448;6.604;2023-04-25T19:22:03;5.68;;;2.30;;
55220;SDS011;41089;51.448;6.604;2023-04-25T19:28:04;5.83;;;2.63;;
55220;SDS011;41089;51.448;6.604;2023-04-25T19:34:06;4.15;;;1.83;;
55220;SDS011;41089;51.448;6.604;2023-04-25T19:40:08;5.70;;;2.17;;
55220;SDS011;41089;51.448;6.604;2023-04-25T19:46:08;7.10;;;3.42;;
55220;SDS011;41089;51.448;6.604;2023-04-25T19:52:09;7.97;;;3.30;;
55220;SDS011;41089;51.448;6.604;2023-04-25T19:58:14;5.03;;;2.45;;
55220;SDS011;41089;51.448;6.604;2023-04-25T20:04:15;5.82;;;2.60;;
55220;SDS011;41089;51.448;6.604;2023-04-25T20:10:17;7.22;;;2.53;;
55220;SDS011;41089;51.448;6.604;2023-04-25T20:16:18;6.68;;;2.58;;
55220;SDS011;41089;51.448;6.604;2023-04-25T20:22:20;7.13;;;2.05;;
55220;SDS011;41089;51.448;6.604;2023-04-25T20:28:20;8.45;;;2.70;;
55220;SDS011;41089;51.448;6.604;2023-04-25T20:34:22;5.15;;;2.17;;
55220;SDS011;41089;51.448;6.604;2023-04-25T20:40:24;4.32;;;1.90;;
55220;SDS011;41089;51.448;6.604;2023-04-25T20:46:24;5.70;;;1.80;;
55220;SDS011;41089;51.448;6.604;2023-04-25T20:52:25;6.28;;;1.80;;
55220;SDS011;41089;51.448;6.604;2023-04-25T20:58:25;6.33;;;2.23;;
55220;SDS011;41089;51.448;6.604;2023-04-25T21:04:26;6.93;;;2.58;;
55220;SDS011;41089;51.448;6.604;2023-04-25T21:10:27;8.38;;;4.10;;
55220;SDS011;41089;51.448;6.604;2023-04-25T21:16:27;9.15;;;2.63;;
55220;SDS011;41089;51.448;6.604;2023-04-25T21:22:31;11.48;;;3.03;;
55220;SDS011;41089;51.448;6.604;2023-04-25T21:28:32;6.10;;;2.60;;
55220;SDS011;41089;51.448;6.604;2023-04-25T21:34:33;8.48;;;3.13;;
55220;SDS011;41089;51.448;6.604;2023-04-25T21:40:33;5.72;;;2.70;;
55220;SDS011;41089;51.448;6.604;2023-04-25T21:46:34;7.95;;;2.40;;
55220;SDS011;41089;51.448;6.604;2023-04-25T21:52:34;9.27;;;2.33;;
55220;SDS011;41089;51.448;6.604;2023-04-25T21:58:35;9.32;;;2.80;;
55220;SDS011;41089;51.448;6.604;2023-04-25T22:04:36;4.53;;;2.53;;
55220;SDS011;41089;51.448;6.604;2023-04-25T22:10:36;4.88;;;2.05;;
55220;SDS011;41089;51.448;6.604;2023-04-25T22:16:38;8.68;;;2.65;;
55220;SDS011;41089;51.448;6.604;2023-04-25T22:22:39;7.07;;;2.80;;
55220;SDS011;41089;51.448;6.604;2023-04-25T22:28:40;8.32;;;2.80;;
55220;SDS011;41089;51.448;6.604;2023-04-25T22:34:41;5.53;;;2.55;;
55220;SDS011;41089;51.448;6.604;2023-04-25T22:40:41;8.77;;;2.95;;
55220;SDS011;41089;51.448;6.604;2023-04-25T22:46:42;8.18;;;3.40;;
55220;SDS011;41089;51.448;6.604;2023-04-25T22:52:42;11.10;;;3.85;;
55220;SDS011;41089;51.448;6.604;2023-04-25T22:58:43;7.60;;;2.75;;
55220;SDS011;41089;51.448;6.604;2023-04-25T23:04:44;8.20;;;3.40;;
55220;SDS011;41089;51.448;6.604;2023-04-25T23:10:44;7.87;;;3.27;;
55220;SDS011;41089;51.448;6.604;2023-04-25T23:16:45;5.87;;;3.63;;
55220;SDS011;41089;51.448;6.604;2023-04-25T23:22:45;8.35;;;3.25;;
55220;SDS011;41089;51.448;6.604;2023-04-25T23:28:46;5.80;;;3.22;;
55220;SDS011;41089;51.448;6.604;2023-04-25T23:34:46;8.18;;;3.80;;
55220;SDS011;41089;51.448;6.604;2023-04-25T23:40:47;10.88;;;3.58;;
55220;SDS011;41089;51.448;6.604;2023-04-25T23:46:48;9.93;;;4.03;;
55220;SDS011;41089;51.448;6.604;2023-04-25T23:52:48;10.80;;;4.30;;
55220;SDS011;41089;51.448;6.604;2023-04-25T23:58:49;7.37;;;3.30;;
